Collegeville, Indiana
Current Conditions -  °F | °C
As of 4:15 PM on Wednesday 28 Jan 2015 (Local Time) from KRZL Reporting Station
Clear Clear  
Wind Chill: 25°   Ceiling: Unl
Heat Index: 34°   Visibility: 10mi
Dew Point: 27°   Wind: 12mph
Humidity: 75%   Direction: 130°SE
Pressure: 30.11"   Gusts: NA
Location:  40.9571°N, 87.0941°W
Report Text: KRZL 282215Z AUTO 13010KT 10SM CLR 01/M03 A3011 RMK AO2
Loading
Personal Weather Stations






























Interactive Weather Map New forecast layout! Learn more

10-Day Weather Forecast

Advertisements
Track Severe Weather on mobile